Kristin D — C6XA6 — position and weather

sailwx.info

Track history (hours):
 
Tides and Currents Weather Stations Pressure Air Temp Water Temp Dewpoint Dewpoint Depression Visibility Wind Speed Wind Dir Waves Ship Positions

Kristin D

Last reported at 2014-Aug-28 18:31 UTC. Time now 2014-Aug-29 12:22 UTC.
Position N 66°17' E 012°16'.

Length 90 m; draft 3.7 m.

Type: Cargo ship. MMSI: 311003700.

Date/timePositionNaut miles runAvg speedWind from/ knotsBaromVisibWave heightAir tempDewpointWater temp
2014-Aug-28 18:31N 66°17' E 012°16'9 9.0
2014-Aug-28 17:33N 66°15' E 012°37'4 0.1
2014-Aug-27 11:05N 66°12' E 012°45'610.8
2014-Aug-27 10:33N 66°15' E 012°32'  
2014-Aug-25 01:09N 63°23' E 009°58'710.9
2014-Aug-25 00:33N 63°30' E 009°55'305 6.6
2014-Aug-23 02:09N 58°59' E 005°00'711.6
2014-Aug-23 01:33N 58°54' E 005°07'1212.4
2014-Aug-23 00:33N 58°43' E 005°20'1712.2
2014-Aug-22 23:10N 58°29' E 005°36'812.2
2014-Aug-22 22:31N 58°23' E 005°48'1111.8
2014-Aug-22 21:33N 58°16' E 006°05'1211.6
2014-Aug-22 20:33N 58°09' E 006°22'122 3.5
2014-Aug-21 09:33N 57°50' E 010°09'8 7.6
2014-Aug-21 08:33N 57°49' E 010°23'8 7.6
2014-Aug-21 07:33N 57°48' E 010°37'9 8.8
2014-Aug-21 06:33N 57°45' E 010°53'1110.7
2014-Aug-21 05:33N 57°38' E 011°08'1111.1
2014-Aug-21 04:33N 57°30' E 011°22'1111.3
2014-Aug-21 03:33N 57°20' E 011°31'1211.3
2014-Aug-21 02:32N 57°09' E 011°39'4411.1
2014-Aug-20 22:33N 56°27' E 012°06'1111.0
2014-Aug-20 21:33N 56°19' E 012°17'1110.8
2014-Aug-20 20:33N 56°10' E 012°29'1110.8
2014-Aug-20 19:33N 56°01' E 012°40'1010.5
2014-Aug-20 18:33N 55°51' E 012°44'1211.6
2014-Aug-20 17:33N 55°39' E 012°42'1110.9
2014-Aug-20 16:33N 55°28' E 012°42'1212.5
2014-Aug-20 15:33N 55°16' E 012°40'8 8.1
2014-Aug-20 14:33N 55°11' E 012°52'8 8.2
2014-Aug-20 13:33N 55°09' E 013°05'19 9.1
2014-Aug-20 11:27N 55°04' E 013°38'10 8.4
2014-Aug-20 10:20N 55°00' E 013°53'20 5.1
2014-Aug-20 06:29N 54°56' E 014°26'4 4.6
2014-Aug-20 05:32N 54°56' E 014°34'5 4.7
2014-Aug-20 04:24N 54°55' E 014°43'5 4.7
2014-Aug-20 03:25N 54°55' E 014°51'10 5.1
2014-Aug-20 01:33N 54°54' E 015°07'6 5.9
2014-Aug-20 00:30N 54°53' E 015°18'7 6.4
2014-Aug-19 23:26N 54°53' E 015°30'81 8.8
2014-Aug-19 14:14N 54°57' E 017°50'5 7.6
2014-Aug-19 13:33N 54°57' E 017°59'8 7.6
2014-Aug-19 12:33N 54°58' E 018°12'9 8.6
2014-Aug-19 11:33N 54°55' E 018°26'9 9.5
2014-Aug-19 10:33N 54°49' E 018°40'10 9.9
2014-Aug-19 09:33N 54°44' E 018°54'9 8.8
2014-Aug-19 08:33N 54°35' E 018°54'1010.0
2014-Aug-19 07:33N 54°32' E 018°37'4 3.9
2014-Aug-19 06:32N 54°33' E 018°31'0 0.0
2014-Aug-19 05:32N 54°33' E 018°31'0 0.0
2014-Aug-19 04:32N 54°33' E 018°31'0 0.0
2014-Aug-19 03:32N 54°33' E 018°31'0 0.0
2014-Aug-19 02:32N 54°33' E 018°31'0 0.0
2014-Aug-19 01:32N 54°33' E 018°31'0 0.0
2014-Aug-19 00:32N 54°33' E 018°31'0 0.0
2014-Aug-18 23:32N 54°33' E 018°31'0 0.0
2014-Aug-18 22:32N 54°33' E 018°31'0 0.0
2014-Aug-18 21:32N 54°33' E 018°31'0 0.0
2014-Aug-18 20:32N 54°33' E 018°31'0 0.0
2014-Aug-18 19:32N 54°33' E 018°31'0 0.0
2014-Aug-18 18:32N 54°33' E 018°31'  
Track history (hours):
 
Tides and Currents Weather Stations Pressure Air Temp Water Temp Dewpoint Dewpoint Depression Visibility Wind Speed Wind Dir Waves Ship Positions

Kristin D

Last reported at 2014-Aug-28 18:31 UTC. Time now 2014-Aug-29 12:22 UTC.
Position N 66°17' E 012°16'.

Length 90 m; draft 3.7 m.

Type: Cargo ship. MMSI: 311003700.

Date/timePositionNaut miles runAvg speedWind from/ knotsBaromVisibWave heightAir tempDewpointWater temp
2014-Aug-28 18:31N 66°17' E 012°16'9 9.0
2014-Aug-28 17:33N 66°15' E 012°37'4 0.1
2014-Aug-27 11:05N 66°12' E 012°45'610.8
2014-Aug-27 10:33N 66°15' E 012°32'  
2014-Aug-25 01:09N 63°23' E 009°58'710.9
2014-Aug-25 00:33N 63°30' E 009°55'305 6.6
2014-Aug-23 02:09N 58°59' E 005°00'711.6
2014-Aug-23 01:33N 58°54' E 005°07'1212.4
2014-Aug-23 00:33N 58°43' E 005°20'1712.2
2014-Aug-22 23:10N 58°29' E 005°36'812.2
2014-Aug-22 22:31N 58°23' E 005°48'1111.8
2014-Aug-22 21:33N 58°16' E 006°05'1211.6
2014-Aug-22 20:33N 58°09' E 006°22'122 3.5
2014-Aug-21 09:33N 57°50' E 010°09'8 7.6
2014-Aug-21 08:33N 57°49' E 010°23'8 7.6
2014-Aug-21 07:33N 57°48' E 010°37'9 8.8
2014-Aug-21 06:33N 57°45' E 010°53'1110.7
2014-Aug-21 05:33N 57°38' E 011°08'1111.1
2014-Aug-21 04:33N 57°30' E 011°22'1111.3
2014-Aug-21 03:33N 57°20' E 011°31'1211.3
2014-Aug-21 02:32N 57°09' E 011°39'4411.1
2014-Aug-20 22:33N 56°27' E 012°06'1111.0
2014-Aug-20 21:33N 56°19' E 012°17'1110.8
2014-Aug-20 20:33N 56°10' E 012°29'1110.8
2014-Aug-20 19:33N 56°01' E 012°40'1010.5
2014-Aug-20 18:33N 55°51' E 012°44'1211.6
2014-Aug-20 17:33N 55°39' E 012°42'1110.9
2014-Aug-20 16:33N 55°28' E 012°42'1212.5
2014-Aug-20 15:33N 55°16' E 012°40'8 8.1
2014-Aug-20 14:33N 55°11' E 012°52'8 8.2
2014-Aug-20 13:33N 55°09' E 013°05'19 9.1
2014-Aug-20 11:27N 55°04' E 013°38'10 8.4
2014-Aug-20 10:20N 55°00' E 013°53'20 5.1
2014-Aug-20 06:29N 54°56' E 014°26'4 4.6
2014-Aug-20 05:32N 54°56' E 014°34'5 4.7
2014-Aug-20 04:24N 54°55' E 014°43'5 4.7
2014-Aug-20 03:25N 54°55' E 014°51'10 5.1
2014-Aug-20 01:33N 54°54' E 015°07'6 5.9
2014-Aug-20 00:30N 54°53' E 015°18'7 6.4
2014-Aug-19 23:26N 54°53' E 015°30'81 8.8
2014-Aug-19 14:14N 54°57' E 017°50'5 7.6
2014-Aug-19 13:33N 54°57' E 017°59'8 7.6
2014-Aug-19 12:33N 54°58' E 018°12'9 8.6
2014-Aug-19 11:33N 54°55' E 018°26'9 9.5
2014-Aug-19 10:33N 54°49' E 018°40'10 9.9
2014-Aug-19 09:33N 54°44' E 018°54'9 8.8
2014-Aug-19 08:33N 54°35' E 018°54'1010.0
2014-Aug-19 07:33N 54°32' E 018°37'4 3.9
2014-Aug-19 06:32N 54°33' E 018°31'0 0.0
2014-Aug-19 05:32N 54°33' E 018°31'0 0.0
2014-Aug-19 04:32N 54°33' E 018°31'0 0.0
2014-Aug-19 03:32N 54°33' E 018°31'0 0.0
2014-Aug-19 02:32N 54°33' E 018°31'0 0.0
2014-Aug-19 01:32N 54°33' E 018°31'0 0.0
2014-Aug-19 00:32N 54°33' E 018°31'0 0.0
2014-Aug-18 23:32N 54°33' E 018°31'0 0.0
2014-Aug-18 22:32N 54°33' E 018°31'0 0.0
2014-Aug-18 21:32N 54°33' E 018°31'0 0.0
2014-Aug-18 20:32N 54°33' E 018°31'0 0.0
2014-Aug-18 19:32N 54°33' E 018°31'0 0.0
2014-Aug-18 18:32N 54°33' E 018°31'  

Dump ship's entire track history